Time;durP1;ratioP1;P1;durP2;ratioP2;P2;SDS_P1;SDS_P2;PMS_P1;PMS_P2;Temp;Humidity;BMP_temperature;BMP_pressure;BME280_temperature;BME280_humidity;BME280_pressure;Samples;Min_cycle;Max_cycle;Signal;HPM_P1;HPM_P2
2021/11/09 00:00:18;;;;;;;18.33;11.60;;;;;;;5.07;88.36;96162.13;5089562;28;20032;-57
2021/11/09 00:02:44;;;;;;;13.27;10.80;;;;;;;5.05;87.93;96168.38;5079896;28;20407;-55
2021/11/09 00:05:14;;;;;;;14.38;12.13;;;;;;;5.04;88.26;96164.09;5090195;28;20024;-56
2021/11/09 00:07:49;;;;;;;16.13;11.25;;;;;;;5.02;88.70;96165.03;5088277;28;20069;-55
2021/11/09 00:10:15;;;;;;;12.77;11.43;;;;;;;5.03;88.45;96163.25;5087057;28;20170;-56
2021/11/09 00:12:46;;;;;;;15.60;11.45;;;;;;;5.01;88.10;96163.34;5087377;28;20032;-55
2021/11/09 00:15:15;;;;;;;14.38;11.77;;;;;;;4.99;87.92;96152.16;5089844;28;20415;-56
2021/11/09 00:17:42;;;;;;;13.27;9.88;;;;;;;4.99;87.91;96154.78;5090159;28;20042;-57
2021/11/09 00:20:11;;;;;;;16.60;10.57;;;;;;;4.98;87.41;96162.72;5090491;28;20119;-57
2021/11/09 00:22:37;;;;;;;11.85;10.15;;;;;;;5.00;87.17;96160.84;5090937;28;20081;-58
2021/11/09 00:25:03;;;;;;;12.95;10.27;;;;;;;5.04;86.97;96153.66;5089734;28;20044;-57
2021/11/09 00:27:28;;;;;;;11.65;10.02;;;;;;;5.04;86.66;96162.34;5090520;28;20032;-56
2021/11/09 00:29:54;;;;;;;12.68;9.82;;;;;;;5.01;86.58;96165.97;5090344;28;20039;-55
2021/11/09 00:32:19;;;;;;;11.95;9.10;;;;;;;5.01;86.52;96167.75;5090151;28;20494;-56
2021/11/09 00:34:45;;;;;;;12.85;10.25;;;;;;;5.00;86.84;96163.47;5090165;28;20372;-55
2021/11/09 00:37:11;;;;;;;11.32;9.65;;;;;;;5.02;86.61;96169.41;5087949;28;20039;-55
2021/11/09 00:39:37;;;;;;;9.85;8.88;;;;;;;5.02;87.37;96158.97;5090497;28;20051;-55
2021/11/09 00:42:04;;;;;;;12.40;9.07;;;;;;;5.00;87.80;96171.28;5086154;28;20036;-56
2021/11/09 00:44:30;;;;;;;11.77;10.07;;;;;;;4.98;88.67;96176.59;5089223;28;20035;-57
2021/11/09 00:46:56;;;;;;;11.02;9.80;;;;;;;4.95;88.23;96176.78;5090001;28;20040;-56
2021/11/09 00:49:22;;;;;;;15.68;9.45;;;;;;;4.95;88.01;96191.59;5084440;28;20032;-55
2021/11/09 00:51:49;;;;;;;11.75;9.57;;;;;;;4.93;88.77;96186.47;5089246;28;20040;-56
2021/11/09 00:54:16;;;;;;;11.65;8.80;;;;;;;4.91;88.88;96190.09;5081534;28;20028;-54
2021/11/09 00:56:41;;;;;;;11.25;9.25;;;;;;;4.95;87.98;96199.41;5089566;28;20069;-54
2021/11/09 00:59:07;;;;;;;12.95;10.48;;;;;;;4.97;87.83;96200.16;5088480;28;20034;-55
2021/11/09 01:01:33;;;;;;;14.27;11.75;;;;;;;4.98;87.57;96183.59;5082526;28;20390;-56
2021/11/09 01:03:59;;;;;;;13.85;10.70;;;;;;;5.02;87.18;96192.91;5089346;28;20028;-56
2021/11/09 01:06:25;;;;;;;17.00;10.95;;;;;;;5.05;86.72;96184.03;5083483;28;20101;-53
2021/11/09 01:08:51;;;;;;;21.98;11.98;;;;;;;4.99;86.95;96186.09;5082069;28;20044;-55
2021/11/09 01:11:17;;;;;;;17.10;12.18;;;;;;;4.93;86.89;96190.84;5088379;28;20115;-57
2021/11/09 01:13:43;;;;;;;13.40;11.05;;;;;;;4.99;86.86;96187.88;5088850;28;20024;-56
2021/11/09 01:16:09;;;;;;;10.82;9.30;;;;;;;4.97;86.88;96187.13;5088956;28;20042;-56
2021/11/09 01:18:38;;;;;;;11.30;8.75;;;;;;;4.86;86.94;96190.38;5089450;28;20036;-56
2021/11/09 01:21:04;;;;;;;9.35;8.40;;;;;;;4.93;85.91;96189.09;5089670;28;20038;-54
2021/11/09 01:23:31;;;;;;;9.57;8.57;;;;;;;4.72;86.46;96189.47;5086570;28;20110;-53
2021/11/09 01:25:57;;;;;;;13.20;10.38;;;;;;;4.73;86.80;96185.09;5089535;28;20074;-55
2021/11/09 01:28:22;;;;;;;11.80;8.98;;;;;;;4.61;87.08;96189.28;5086579;28;20032;-56
2021/11/09 01:30:48;;;;;;;9.88;8.88;;;;;;;4.57;87.62;96187.78;5089945;28;20039;-57
2021/11/09 01:33:15;;;;;;;11.38;8.88;;;;;;;4.57;87.50;96186.03;5087166;28;20081;-56
2021/11/09 01:35:40;;;;;;;12.40;9.88;;;;;;;4.57;87.18;96183.44;5089881;28;20032;-55
2021/11/09 01:38:07;;;;;;;11.73;10.52;;;;;;;4.56;87.19;96191.31;5088080;28;20092;-55
2021/11/09 01:40:33;;;;;;;10.13;9.23;;;;;;;4.50;87.63;96189.91;5072226;28;20171;-55
2021/11/09 01:43:00;;;;;;;14.07;10.35;;;;;;;4.44;88.54;96201.59;5068404;28;20048;-56
2021/11/09 01:45:26;;;;;;;10.70;9.52;;;;;;;4.46;88.16;96203.25;5086783;28;20391;-56
2021/11/09 01:47:52;;;;;;;15.35;10.63;;;;;;;4.49;88.36;96192.63;5084929;28;20112;-56
2021/11/09 01:50:25;;;;;;;11.32;10.15;;;;;;;4.50;88.50;96194.31;5075033;28;20032;-56
2021/11/09 01:52:52;;;;;;;11.65;10.45;;;;;;;4.50;88.97;96187.31;5086013;28;20113;-55
2021/11/09 01:55:21;;;;;;;14.27;10.85;;;;;;;4.50;89.37;96189.09;5088106;28;20078;-56
2021/11/09 01:57:47;;;;;;;11.30;9.73;;;;;;;4.41;89.50;96195.69;5086888;28;20502;-56
2021/11/09 02:00:18;;;;;;;12.50;11.18;;;;;;;4.37;89.77;96205.47;5080336;28;20067;-58
2021/11/09 02:02:45;;;;;;;12.20;10.45;;;;;;;4.40;89.66;96202.66;5088673;28;20024;-56
2021/11/09 02:05:13;;;;;;;15.00;11.18;;;;;;;4.43;88.69;96199.91;5088660;28;20170;-56
2021/11/09 02:07:47;;;;;;;11.65;10.13;;;;;;;4.40;88.76;96186.22;5088219;28;20035;-57
2021/11/09 02:10:13;;;;;;;10.80;9.63;;;;;;;4.39;89.12;96200.16;5086443;28;20032;-55
2021/11/09 02:12:40;;;;;;;12.32;9.77;;;;;;;4.38;88.92;96201.09;5087276;28;20564;-55
2021/11/09 02:15:07;;;;;;;13.75;11.80;;;;;;;4.30;88.95;96197.16;5086265;28;20050;-56
2021/11/09 02:17:35;;;;;;;14.07;10.68;;;;;;;4.29;88.81;96203.31;5086192;28;20106;-56
2021/11/09 02:20:01;;;;;;;12.43;10.73;;;;;;;4.34;88.75;96204.81;5087842;28;20035;-54
2021/11/09 02:22:27;;;;;;;13.75;10.60;;;;;;;4.43;88.08;96206.88;5085011;28;20036;-56
2021/11/09 02:24:54;;;;;;;11.75;10.52;;;;;;;4.40;88.19;96200.06;5088011;28;20036;-57
2021/11/09 02:27:19;;;;;;;13.80;11.15;;;;;;;4.34;88.57;96195.22;5088261;28;20032;-56
2021/11/09 02:29:46;;;;;;;16.90;15.10;;;;;;;4.25;89.56;96190.56;5087197;28;20040;-56
2021/11/09 02:32:11;;;;;;;13.48;10.23;;;;;;;4.17;89.88;96198.84;5088509;28;20147;-55
2021/11/09 02:34:37;;;;;;;11.25;10.07;;;;;;;4.19;89.80;96196.13;5087467;28;20154;-56
2021/11/09 02:37:03;;;;;;;10.82;9.70;;;;;;;4.18;89.46;96194.44;5089881;28;20039;-56
2021/11/09 02:39:28;;;;;;;12.02;9.90;;;;;;;4.17;89.62;96193.63;5098971;28;20557;-56
2021/11/09 02:41:54;;;;;;;20.83;10.55;;;;;;;4.17;89.92;96201.44;5086852;28;20115;-57
2021/11/09 02:44:21;;;;;;;12.13;10.70;;;;;;;4.18;89.97;96200.50;5093611;28;20075;-56
2021/11/09 02:46:51;;;;;;;12.40;10.55;;;;;;;4.23;89.42;96198.47;5093595;28;20481;-56
2021/11/09 02:49:41;;;;;;;13.48;9.57;;;;;;;4.26;89.38;96193.06;5094145;28;20505;-56
2021/11/09 02:52:08;;;;;;;11.70;10.38;;;;;;;4.22;89.14;96194.19;5096468;28;20040;-54
2021/11/09 02:54:40;;;;;;;11.52;9.93;;;;;;;4.23;89.03;96197.63;5094604;28;20039;-55
2021/11/09 02:57:15;;;;;;;12.77;9.80;;;;;;;4.33;88.46;96203.16;5095816;28;20058;-57
2021/11/09 03:00:20;;;;;;;11.68;10.32;;;;;;;4.22;89.07;96202.00;5092118;28;20441;-57
2021/11/09 03:07:50;;;;;;;10.55;9.45;;;;;;;4.15;89.07;96192.88;5092738;28;20063;-55
2021/11/09 03:12:54;;;;;;;13.80;10.23;;;;;;;4.20;87.79;96203.00;5091294;28;20032;-54
2021/11/09 03:15:26;;;;;;;11.73;10.55;;;;;;;4.20;87.84;96197.78;5094087;28;20028;-56
2021/11/09 03:18:15;;;;;;;11.75;10.55;;;;;;;4.23;87.99;96200.25;5088555;28;20028;-57
2021/11/09 03:40:14;;;;;;;15.68;12.52;;;;;;;3.81;89.60;96198.28;5090543;28;20051;-54
2021/11/09 03:45:31;;;;;;;16.15;12.70;;;;;;;3.87;89.02;96210.13;5088598;28;20035;-55
2021/11/09 03:48:08;;;;;;;15.23;11.85;;;;;;;4.00;87.93;96202.44;5086633;28;20035;-55
2021/11/09 03:50:36;;;;;;;13.55;10.68;;;;;;;3.98;87.81;96194.69;5088621;28;20036;-57
2021/11/09 03:53:12;;;;;;;15.18;11.75;;;;;;;3.77;88.80;96195.91;5091008;28;20522;-56
2021/11/09 03:56:25;;;;;;;14.15;11.07;;;;;;;3.73;89.28;96187.44;5088789;28;20580;-54
2021/11/09 03:59:03;;;;;;;16.10;11.75;;;;;;;3.71;89.56;96184.94;5074130;28;20127;-56
2021/11/09 04:01:34;;;;;;;13.60;12.18;;;;;;;3.63;90.02;96186.28;5084151;28;20107;-56
2021/11/09 04:06:51;;;;;;;12.57;10.82;;;;;;;3.66;89.94;96183.50;5073908;28;20126;-56
2021/11/09 04:10:08;;;;;;;12.27;10.98;;;;;;;3.65;89.48;96187.91;5089710;28;20028;-56
2021/11/09 04:12:19;;;;;;;12.15;10.55;;;;;;;3.65;89.44;96193.09;5078705;28;20040;-56
2021/11/09 04:20:33;;;;;;;11.15;9.75;;;;;;;3.69;89.26;96204.16;5086363;28;20098;-55
2021/11/09 04:48:15;;;;;;;11.88;9.43;;;;;;;3.50;90.22;96206.97;5090863;28;20560;-52
2021/11/09 05:08:37;;;;;;;10.32;8.77;;;;;;;3.53;89.46;96220.63;5088530;28;20089;-55
2021/11/09 05:11:03;;;;;;;11.93;8.30;;;;;;;3.60;88.82;96225.53;5084675;28;20032;-54
2021/11/09 05:13:28;;;;;;;11.15;9.95;;;;;;;3.61;88.56;96217.63;5089177;28;20031;-56
2021/11/09 05:15:54;;;;;;;11.13;8.32;;;;;;;3.60;87.95;96221.13;5087709;28;20032;-56
2021/11/09 05:18:21;;;;;;;9.68;8.43;;;;;;;3.52;88.43;96221.56;5081828;28;20039;-53
2021/11/09 05:20:47;;;;;;;10.57;9.40;;;;;;;3.49;89.01;96208.72;5089517;28;20032;-54
2021/11/09 05:23:13;;;;;;;10.90;8.65;;;;;;;3.61;88.52;96219.38;5087894;28;20406;-57
2021/11/09 05:25:39;;;;;;;10.13;9.05;;;;;;;3.49;88.59;96220.91;5085358;28;20031;-52
2021/11/09 05:28:07;;;;;;;9.65;8.10;;;;;;;3.46;88.86;96218.50;5088356;28;20032;-56
2021/11/09 05:30:33;;;;;;;9.82;8.82;;;;;;;3.44;88.89;96224.63;5088414;28;20028;-57
2021/11/09 05:33:00;;;;;;;13.80;11.40;;;;;;;3.41;89.75;96226.53;5089693;28;20028;-55
2021/11/09 05:35:26;;;;;;;16.08;14.38;;;;;;;3.32;90.08;96229.66;5087008;28;20036;-56
2021/11/09 05:37:53;;;;;;;12.95;9.45;;;;;;;3.28;90.68;96231.59;5085894;28;20560;-54
2021/11/09 05:40:26;;;;;;;12.23;10.93;;;;;;;3.30;90.57;96232.34;5069768;28;20086;-55
2021/11/09 05:42:51;;;;;;;9.82;8.40;;;;;;;3.28;90.49;96231.59;5083534;28;20107;-55
2021/11/09 05:45:17;;;;;;;9.70;8.70;;;;;;;3.26;91.31;96234.25;5088878;28;20136;-55
2021/11/09 05:47:43;;;;;;;10.27;9.30;;;;;;;3.29;91.23;96238.47;5087439;28;20114;-52
2021/11/09 05:50:09;;;;;;;11.48;9.45;;;;;;;3.32;90.63;96246.09;5088455;28;20550;-56
2021/11/09 05:52:35;;;;;;;11.18;9.93;;;;;;;3.27;90.96;96241.13;5088638;28;20032;-55
2021/11/09 05:55:01;;;;;;;10.77;9.68;;;;;;;3.27;91.73;96253.31;5089201;28;20118;-56
2021/11/09 05:57:26;;;;;;;10.80;9.77;;;;;;;3.31;91.26;96244.44;5083892;28;20028;-54
2021/11/09 05:59:51;;;;;;;12.70;10.35;;;;;;;3.39;90.59;96244.84;5089755;28;20031;-55
2021/11/09 06:02:17;;;;;;;10.75;9.00;;;;;;;3.43;90.33;96243.78;5088830;28;20039;-56
2021/11/09 06:04:42;;;;;;;10.23;8.48;;;;;;;3.37;91.60;96254.50;5089141;28;20486;-57
2021/11/09 06:07:08;;;;;;;11.55;9.30;;;;;;;3.34;91.19;96256.44;5088806;28;20036;-55
2021/11/09 06:09:33;;;;;;;11.05;9.98;;;;;;;3.34;91.43;96261.66;5085098;28;20089;-55
2021/11/09 06:11:58;;;;;;;10.18;9.18;;;;;;;3.35;91.13;96256.34;5086984;28;20039;-55
2021/11/09 06:14:24;;;;;;;10.77;9.18;;;;;;;3.40;90.55;96261.31;5088533;28;20037;-54
2021/11/09 06:16:49;;;;;;;13.45;11.60;;;;;;;3.34;91.36;96272.88;5086155;28;20056;-55
2021/11/09 06:19:15;;;;;;;17.55;9.93;;;;;;;3.33;90.58;96273.81;5089101;28;20028;-55
2021/11/09 06:21:40;;;;;;;14.85;9.95;;;;;;;3.34;90.25;96274.66;5083401;28;21371;-54
2021/11/09 06:24:06;;;;;;;12.57;10.82;;;;;;;3.36;90.51;96278.03;5086728;28;20078;-56
2021/11/09 06:26:31;;;;;;;11.70;10.07;;;;;;;3.35;90.15;96277.16;5088241;28;20028;-54
2021/11/09 06:28:59;;;;;;;12.13;9.52;;;;;;;3.38;90.16;96278.78;5086381;28;20095;-51
2021/11/09 06:31:27;;;;;;;11.65;9.48;;;;;;;3.40;90.07;96288.16;5081484;28;20085;-59
2021/11/09 06:33:53;;;;;;;11.05;9.93;;;;;;;3.50;89.90;96290.28;5086771;28;20042;-56
2021/11/09 06:36:18;;;;;;;13.52;9.05;;;;;;;3.50;90.11;96295.50;5086762;28;20111;-54
2021/11/09 06:38:45;;;;;;;11.75;10.10;;;;;;;3.43;90.68;96298.44;5088057;28;20111;-55
2021/11/09 06:41:10;;;;;;;11.30;9.57;;;;;;;3.42;90.27;96295.91;5088853;28;20035;-54
2021/11/09 06:43:35;;;;;;;12.68;9.85;;;;;;;3.46;90.05;96300.00;5087572;28;20032;-55
2021/11/09 06:46:01;;;;;;;11.50;10.30;;;;;;;3.52;90.04;96302.28;5085145;28;20514;-56
2021/11/09 06:48:26;;;;;;;12.70;9.30;;;;;;;3.49;89.91;96301.63;5081689;28;20123;-55
2021/11/09 06:50:53;;;;;;;11.13;9.35;;;;;;;3.51;89.55;96303.19;5084556;28;20503;-58
2021/11/09 06:53:19;;;;;;;15.35;10.73;;;;;;;3.57;89.57;96312.44;5087389;28;20085;-57
2021/11/09 06:55:45;;;;;;;13.85;11.48;;;;;;;3.53;89.60;96314.38;5086531;28;20036;-53
2021/11/09 06:58:11;;;;;;;13.02;11.52;;;;;;;3.44;90.03;96315.72;5083844;28;20105;-56
2021/11/09 07:00:37;;;;;;;15.23;11.63;;;;;;;3.37;90.50;96324.78;5087326;28;20036;-57
2021/11/09 07:03:03;;;;;;;17.80;12.77;;;;;;;3.41;90.59;96320.25;5086125;28;20024;-56
2021/11/09 07:05:28;;;;;;;14.43;12.40;;;;;;;3.39;90.37;96322.94;5086512;28;20039;-56
2021/11/09 07:07:54;;;;;;;17.45;13.95;;;;;;;3.42;90.12;96317.56;5086659;28;20036;-55
2021/11/09 07:10:20;;;;;;;12.43;11.20;;;;;;;3.37;90.79;96324.78;5087219;28;20036;-55
2021/11/09 07:12:45;;;;;;;15.60;11.65;;;;;;;3.38;90.82;96325.63;5082356;28;20093;-55
2021/11/09 07:15:12;;;;;;;15.10;12.32;;;;;;;3.38;90.99;96336.88;5087608;28;20032;-54
2021/11/09 07:17:39;;;;;;;13.10;10.60;;;;;;;3.42;90.28;96327.97;5086354;28;20054;-53
2021/11/09 07:20:10;;;;;;;13.10;10.57;;;;;;;3.46;90.03;96333.03;5087541;28;20027;-53
2021/11/09 07:22:36;;;;;;;13.85;10.30;;;;;;;3.43;90.51;96329.69;5089475;28;20036;-53
2021/11/09 07:25:02;;;;;;;11.55;10.35;;;;;;;3.48;90.30;96339.00;5084358;28;20621;-54
2021/11/09 07:27:27;;;;;;;17.42;15.55;;;;;;;3.54;89.91;96341.25;5088515;28;20217;-54
2021/11/09 07:29:53;;;;;;;22.60;17.13;;;;;;;3.52;90.15;96345.72;5088000;28;20040;-53
2021/11/09 07:32:21;;;;;;;22.20;15.10;;;;;;;3.48;90.74;96347.63;5091519;28;20411;-54
2021/11/09 07:34:47;;;;;;;13.38;11.98;;;;;;;3.57;90.47;96352.38;5091367;28;20464;-55
2021/11/09 07:37:13;;;;;;;16.23;13.55;;;;;;;3.64;90.03;96360.66;5089081;28;20043;-55
2021/11/09 07:39:38;;;;;;;16.80;13.90;;;;;;;3.68;89.56;96364.81;5081248;28;20550;-54
2021/11/09 07:42:04;;;;;;;13.07;11.80;;;;;;;3.71;89.29;96353.38;5069682;28;20033;-52
2021/11/09 07:44:30;;;;;;;12.35;11.05;;;;;;;3.77;89.11;96365.22;5070313;28;20032;-53
2021/11/09 07:46:55;;;;;;;12.27;10.98;;;;;;;3.80;89.23;96352.88;5070362;28;20033;-55
2021/11/09 07:49:22;;;;;;;16.63;13.13;;;;;;;3.84;88.99;96353.53;5069927;28;20515;-55
2021/11/09 07:51:48;;;;;;;15.60;11.82;;;;;;;3.86;89.15;96356.88;5088165;28;20032;-53
2021/11/09 07:54:13;;;;;;;18.65;13.02;;;;;;;3.90;88.54;96348.00;5087892;28;20020;-50
2021/11/09 07:56:40;;;;;;;14.45;12.23;;;;;;;3.91;88.72;96344.47;5067353;28;20036;-54
2021/11/09 08:04:17;;;;;;;13.15;11.30;;;;;;;3.98;88.27;96351.00;5090521;28;20849;-53
2021/11/09 08:09:20;;;;;;;14.35;12.05;;;;;;;4.00;87.98;96346.56;5091317;28;20165;-55
2021/11/09 08:11:47;;;;;;;15.80;12.38;;;;;;;3.99;88.14;96347.47;5090725;28;20073;-53
2021/11/09 08:14:13;;;;;;;23.73;12.43;;;;;;;4.05;88.14;96335.88;5090615;28;20020;-54
2021/11/09 08:16:39;;;;;;;15.00;12.48;;;;;;;4.10;88.02;96339.06;5085357;28;20028;-53
2021/11/09 08:19:05;;;;;;;13.10;10.88;;;;;;;4.19;86.91;96337.72;5082170;28;20088;-54
2021/11/09 08:21:32;;;;;;;11.45;10.38;;;;;;;4.25;86.42;96342.56;5090051;28;20107;-56
2021/11/09 08:23:58;;;;;;;13.55;10.35;;;;;;;4.44;85.15;96336.31;5090708;28;20672;-51
2021/11/09 08:26:26;;;;;;;17.90;9.73;;;;;;;4.52;84.36;96335.88;5090172;28;20074;-51
2021/11/09 08:28:53;;;;;;;12.55;10.38;;;;;;;4.54;85.04;96341.84;5090215;28;20039;-51
2021/11/09 08:31:21;;;;;;;10.82;9.70;;;;;;;4.51;84.96;96350.66;5090533;28;20055;-51
2021/11/09 08:33:49;;;;;;;14.15;10.30;;;;;;;4.56;84.75;96342.59;5088416;28;20035;-54
2021/11/09 08:36:16;;;;;;;14.07;10.70;;;;;;;4.65;84.60;96336.00;5090094;28;20552;-52
2021/11/09 08:38:43;;;;;;;15.88;11.07;;;;;;;4.60;84.34;96351.91;5089864;28;20059;-53
2021/11/09 08:41:11;;;;;;;15.63;12.32;;;;;;;4.51;84.39;96355.88;5090373;28;20028;-53
2021/11/09 08:43:39;;;;;;;14.85;11.82;;;;;;;4.48;84.78;96350.84;5089956;28;20032;-55
2021/11/09 08:46:17;;;;;;;15.48;10.02;;;;;;;4.61;84.24;96348.38;5088188;28;20028;-55
2021/11/09 08:48:46;;;;;;;15.70;10.80;;;;;;;4.85;83.56;96351.31;5088806;28;20059;-55
2021/11/09 08:51:12;;;;;;;19.50;13.93;;;;;;;4.74;84.19;96351.09;5105182;28;20042;-55
2021/11/09 08:53:43;;;;;;;24.92;14.50;;;;;;;4.86;84.43;96346.94;5089526;28;20032;-55
2021/11/09 09:04:15;;;;;;;12.75;9.48;;;;;;;5.31;82.62;96354.72;5033041;28;20799;-55
2021/11/09 09:06:43;;;;;;;12.27;9.13;;;;;;;5.39;81.62;96349.03;5089255;28;20028;-53
2021/11/09 09:09:08;;;;;;;12.48;9.20;;;;;;;5.50;81.71;96348.38;5089868;28;20522;-54
2021/11/09 09:11:34;;;;;;;13.25;8.98;;;;;;;5.59;80.44;96351.28;5089157;28;20059;-54
2021/11/09 09:14:02;;;;;;;12.80;9.95;;;;;;;5.80;79.37;96353.50;5089706;28;20051;-53
2021/11/09 09:16:30;;;;;;;14.73;9.90;;;;;;;5.94;78.58;96349.16;5086958;28;20511;-53
2021/11/09 09:18:55;;;;;;;15.95;10.48;;;;;;;6.07;78.83;96346.63;5089920;28;20036;-52
2021/11/09 09:21:28;;;;;;;12.25;10.52;;;;;;;6.07;78.30;96354.47;5089627;28;20031;-54
2021/11/09 09:23:58;;;;;;;13.63;9.13;;;;;;;6.08;76.50;96350.91;5086945;28;20218;-55
2021/11/09 09:26:39;;;;;;;20.23;10.77;;;;;;;6.20;77.05;96354.53;5089430;28;20054;-55
2021/11/09 09:56:19;;;;;;;10.45;8.13;;;;;;;7.04;73.17;96355.16;5087827;28;20030;-55
2021/11/09 09:58:45;;;;;;;12.50;8.98;;;;;;;7.16;72.92;96358.72;5089120;28;20475;-51
2021/11/09 10:01:12;;;;;;;10.52;7.80;;;;;;;7.36;72.57;96357.34;5088222;28;20081;-54
2021/11/09 10:03:40;;;;;;;8.25;7.45;;;;;;;7.60;70.92;96360.06;5088599;28;20112;-54
2021/11/09 10:06:08;;;;;;;9.38;8.10;;;;;;;7.68;70.19;96358.66;5088500;28;20024;-55
2021/11/09 10:08:49;;;;;;;8.85;7.28;;;;;;;7.72;69.24;96360.97;5088833;28;20032;-52
2021/11/09 10:11:27;;;;;;;12.23;10.88;;;;;;;7.66;69.75;96371.06;5085619;28;20107;-53
2021/11/09 10:13:52;;;;;;;12.18;9.35;;;;;;;7.67;70.21;96368.34;5088788;28;20063;-55
2021/11/09 10:16:17;;;;;;;16.10;10.40;;;;;;;7.81;69.46;96364.75;5088242;28;20078;-53
2021/11/09 10:18:43;;;;;;;14.32;11.48;;;;;;;7.65;69.63;96351.88;5088979;28;20039;-52
2021/11/09 10:21:09;;;;;;;12.55;8.75;;;;;;;7.85;68.90;96352.25;5088063;28;20047;-53
2021/11/09 10:23:34;;;;;;;9.50;7.97;;;;;;;7.93;67.86;96341.22;5088582;28;20028;-54
2021/11/09 10:26:16;;;;;;;10.35;7.93;;;;;;;7.94;67.15;96348.13;5088082;28;20047;-55
2021/11/09 10:28:43;;;;;;;9.20;7.55;;;;;;;8.10;66.78;96348.72;5084232;28;20091;-52
2021/11/09 10:31:10;;;;;;;8.90;7.45;;;;;;;8.21;66.30;96334.00;5088734;28;20032;-52
2021/11/09 10:33:42;;;;;;;9.77;7.72;;;;;;;8.38;64.96;96340.63;5088194;28;20499;-53
2021/11/09 10:36:29;;;;;;;8.38;6.78;;;;;;;8.27;65.08;96331.75;5088030;28;20035;-53
2021/11/09 10:39:21;;;;;;;7.18;6.38;;;;;;;8.37;66.33;96331.91;5082868;28;20109;-56
2021/11/09 10:42:07;;;;;;;6.97;6.20;;;;;;;8.52;64.41;96330.00;5081206;28;20506;-51
2021/11/09 10:44:32;;;;;;;9.13;6.03;;;;;;;8.60;64.68;96332.88;5088021;28;20032;-53
2021/11/09 10:47:18;;;;;;;6.45;5.82;;;;;;;8.68;63.87;96332.31;5087059;28;20044;-52
2021/11/09 10:50:23;;;;;;;9.73;5.68;;;;;;;8.52;63.54;96323.91;5085838;28;20039;-55
2021/11/09 10:53:32;;;;;;;6.63;6.00;;;;;;;8.62;62.26;96326.69;5081198;28;20115;-55
2021/11/09 10:56:04;;;;;;;;;;;;;;;9.00;62.44;96320.34;5088009;28;20107;-55
2021/11/09 10:58:56;;;;;;;6.88;6.18;;;;;;;9.22;60.69;96314.25;5082886;28;19912;-53
2021/11/09 11:04:05;;;;;;;10.00;5.97;;;;;;;9.24;59.24;96316.78;5092407;28;20028;-54
2021/11/09 11:06:39;;;;;;;6.68;5.97;;;;;;;9.38;59.49;96303.41;5091893;28;20032;-52
2021/11/09 11:09:10;;;;;;;6.35;5.63;;;;;;;9.51;61.33;96315.59;5092568;28;20122;-53
2021/11/09 11:11:38;;;;;;;8.10;6.32;;;;;;;9.52;59.49;96309.38;5091900;28;20515;-52
2021/11/09 11:14:13;;;;;;;6.88;5.00;;;;;;;9.55;57.70;96309.13;5092043;28;20056;-53
2021/11/09 11:16:42;;;;;;;5.20;4.80;;;;;;;9.50;57.82;96295.53;5091576;28;20031;-52
2021/11/09 11:19:08;;;;;;;6.68;5.07;;;;;;;9.66;57.95;96288.09;5092097;28;20490;-54
2021/11/09 11:21:33;;;;;;;6.55;4.80;;;;;;;9.48;58.60;96294.81;5090287;28;20415;-48
2021/11/09 11:23:59;;;;;;;4.82;4.40;;;;;;;9.55;58.45;96282.84;5087592;28;20097;-51
2021/11/09 11:26:24;;;;;;;6.43;4.75;;;;;;;9.66;57.43;96276.75;5090083;28;20062;-55
2021/11/09 11:28:52;;;;;;;6.43;4.45;;;;;;;9.81;56.27;96287.81;5090389;28;20032;-53
2021/11/09 11:31:20;;;;;;;6.60;4.50;;;;;;;10.04;55.93;96278.91;5091270;28;20035;-54
2021/11/09 11:33:48;;;;;;;5.28;3.83;;;;;;;9.75;57.16;96283.91;5086673;28;20126;-56
2021/11/09 11:36:14;;;;;;;7.30;5.68;;;;;;;9.72;57.82;96290.25;5080133;28;20508;-52
2021/11/09 11:38:43;;;;;;;7.47;6.03;;;;;;;9.56;58.71;96279.25;5088094;28;20028;-53
2021/11/09 11:41:10;;;;;;;4.82;4.38;;;;;;;9.49;59.69;96272.81;5084467;28;20040;-55
2021/11/09 11:43:47;;;;;;;8.85;5.30;;;;;;;9.32;59.26;96272.34;5089774;28;20479;-55
2021/11/09 11:46:15;;;;;;;9.57;7.82;;;;;;;9.44;58.49;96275.81;5088176;28;20051;-53
2021/11/09 11:48:57;;;;;;;8.60;7.75;;;;;;;9.51;58.92;96277.03;5090465;28;20028;-53
2021/11/09 11:51:24;;;;;;;7.68;6.30;;;;;;;9.51;59.06;96270.91;5091930;28;20045;-56
2021/11/09 11:53:54;;;;;;;6.47;5.88;;;;;;;9.58;58.26;96265.06;5089248;28;20040;-52
2021/11/09 11:56:20;;;;;;;7.20;6.50;;;;;;;9.59;58.50;96253.56;5089193;28;20047;-56
2021/11/09 11:58:46;;;;;;;7.53;5.55;;;;;;;9.79;57.76;96242.41;5088893;28;20067;-53
2021/11/09 12:01:12;;;;;;;5.35;4.95;;;;;;;9.83;57.75;96241.19;5089405;28;20068;-52
2021/11/09 12:03:39;;;;;;;5.40;4.90;;;;;;;9.84;56.96;96241.09;5073432;28;20055;-56
2021/11/09 12:06:19;;;;;;;7.82;5.40;;;;;;;9.69;57.17;96245.78;5091338;28;20032;-55
2021/11/09 12:08:49;;;;;;;5.60;5.05;;;;;;;9.84;56.22;96235.84;5085535;28;20032;-56
2021/11/09 12:11:23;;;;;;;6.93;5.28;;;;;;;9.70;57.17;96221.16;5089397;28;20110;-54
2021/11/09 12:14:04;;;;;;;5.93;5.10;;;;;;;9.52;57.87;96227.91;5091580;28;20094;-54
2021/11/09 12:16:52;;;;;;;11.55;6.80;;;;;;;9.47;57.97;96230.88;5090850;28;20079;-54
2021/11/09 12:19:35;;;;;;;9.10;5.70;;;;;;;9.28;58.36;96234.13;5082301;28;20035;-56
2021/11/09 12:22:09;;;;;;;6.82;6.10;;;;;;;9.28;58.40;96228.88;5090662;28;20066;-54
2021/11/09 12:24:58;;;;;;;5.90;5.30;;;;;;;9.41;58.21;96226.97;5083950;28;20028;-56
2021/11/09 12:27:44;;;;;;;7.20;5.00;;;;;;;9.63;58.49;96230.53;5088607;28;20039;-52
2021/11/09 12:30:09;;;;;;;9.07;5.13;;;;;;;9.49;58.38;96228.97;5089871;28;20115;-55
2021/11/09 12:32:38;;;;;;;5.45;4.65;;;;;;;9.41;58.47;96234.00;5087047;28;20558;-52
2021/11/09 12:35:03;;;;;;;6.38;5.63;;;;;;;9.23;58.45;96233.66;5089970;28;20036;-56
2021/11/09 12:37:44;;;;;;;5.32;4.80;;;;;;;9.26;58.19;96244.75;5091188;28;20043;-55
2021/11/09 12:40:28;;;;;;;6.85;4.97;;;;;;;9.26;58.34;96236.88;5085497;28;20036;-56
2021/11/09 12:43:21;;;;;;;4.43;4.03;;;;;;;9.02;58.33;96229.13;5086718;28;20119;-56
2021/11/09 12:45:49;;;;;;;5.65;4.35;;;;;;;9.15;59.33;96232.47;5088078;28;20032;-54
2021/11/09 12:48:28;;;;;;;4.93;4.43;;;;;;;9.37;58.17;96228.16;5088449;28;20036;-54
2021/11/09 12:51:11;;;;;;;7.00;4.75;;;;;;;9.37;58.83;96228.16;5071331;28;20024;-51
2021/11/09 12:53:42;;;;;;;4.55;4.15;;;;;;;9.58;58.58;96228.25;5085610;28;20487;-53
2021/11/09 12:56:12;;;;;;;5.15;4.30;;;;;;;9.67;58.15;96238.97;5087326;28;20032;-53
2021/11/09 12:58:51;;;;;;;4.85;4.35;;;;;;;9.78;57.88;96233.69;5088458;28;20103;-53
2021/11/09 13:04:21;;;;;;;8.48;5.93;;;;;;;9.85;57.99;96234.06;5089268;28;20522;-55
2021/11/09 13:09:30;;;;;;;6.45;5.85;;;;;;;10.26;59.34;96228.97;5082058;28;20457;-52
2021/11/09 13:12:03;;;;;;;7.43;5.50;;;;;;;10.27;57.49;96220.94;5077285;28;20105;-54
2021/11/09 13:14:41;;;;;;;7.47;5.70;;;;;;;10.39;56.90;96213.00;5088981;28;20039;-55
2021/11/09 13:17:16;;;;;;;7.35;5.30;;;;;;;10.62;57.74;96226.06;5075346;28;20495;-54
2021/11/09 13:19:43;;;;;;;6.05;5.07;;;;;;;10.92;55.60;96216.53;5086812;28;20647;-51
2021/11/09 13:22:12;;;;;;;6.65;5.18;;;;;;;10.87;54.47;96227.47;5084332;28;20036;-54
2021/11/09 13:24:54;;;;;;;7.43;5.40;;;;;;;11.24;56.52;96226.09;5086650;28;20088;-56
2021/11/09 13:27:19;;;;;;;6.28;5.45;;;;;;;11.73;54.59;96231.53;5087560;28;20118;-51
2021/11/09 13:29:48;;;;;;;9.00;5.70;;;;;;;11.86;53.05;96249.75;5086113;28;21941;-51
2021/11/09 13:32:16;;;;;;;4.95;4.55;;;;;;;12.13;52.16;96256.19;5085994;28;20024;-53
2021/11/09 13:34:42;;;;;;;9.00;5.32;;;;;;;12.19;52.79;96255.63;5085417;28;20090;-55
2021/11/09 13:37:08;;;;;;;4.75;4.35;;;;;;;12.18;53.29;96259.25;5086601;28;20044;-55
2021/11/09 13:39:33;;;;;;;5.13;4.70;;;;;;;11.97;52.34;96252.25;5078224;28;20047;-57
2021/11/09 13:41:59;;;;;;;7.28;5.80;;;;;;;12.06;52.47;96247.97;5068724;28;20044;-56
2021/11/09 13:44:31;;;;;;;5.95;5.40;;;;;;;11.56;52.56;96254.94;5064265;28;20098;-54
2021/11/09 13:46:57;;;;;;;7.78;4.82;;;;;;;11.62;54.19;96248.31;5068114;28;20124;-54
2021/11/09 13:49:25;;;;;;;7.18;5.57;;;;;;;11.53;54.88;96264.91;5050109;28;20115;-54
2021/11/09 13:51:59;;;;;;;7.55;6.70;;;;;;;11.15;55.50;96262.81;5067898;28;20024;-56
2021/11/09 13:54:31;;;;;;;7.68;6.45;;;;;;;10.94;57.12;96262.00;5062173;28;20439;-56